Time;durP1;ratioP1;P1;durP2;ratioP2;P2;SDS_P1;SDS_P2;PMS_P1;PMS_P2;Temp;Humidity;BMP_temperature;BMP_pressure;BME280_temperature;BME280_humidity;BME280_pressure;Samples;Min_cycle;Max_cycle;Signal;HPM_P1;HPM_P2
2022/11/11 00:02:41;;;;;;;3.78;1.55;;;11.90;66.60;;;;;;5041318;28;20471;-45
2022/11/11 00:05:27;;;;;;;3.97;2.08;;;11.90;66.60;;;;;;5041075;28;20049;-46
2022/11/11 00:08:15;;;;;;;1.33;1.23;;;11.80;66.60;;;;;;5043417;28;20052;-48
2022/11/11 00:11:09;;;;;;;3.33;1.42;;;11.80;66.40;;;;;;5037557;28;20773;-49
2022/11/11 00:13:54;;;;;;;3.20;1.25;;;11.80;66.40;;;;;;5036606;28;20064;-47
2022/11/11 00:25:58;;;;;;;4.28;1.02;;;11.60;66.00;;;;;;5027789;28;20042;-47
2022/11/11 00:29:03;;;;;;;1.88;0.93;;;11.50;65.90;;;;;;5040124;28;20053;-49
2022/11/11 00:38:10;;;;;;;1.60;1.02;;;11.30;65.80;;;;;;5039395;28;20528;-49
2022/11/11 00:40:55;;;;;;;1.85;1.33;;;11.20;65.70;;;;;;5043191;28;20126;-50
2022/11/11 00:43:44;;;;;;;2.58;1.30;;;11.10;65.80;;;;;;5032954;28;20178;-50
2022/11/11 00:52:43;;;;;;;1.58;1.40;;;11.00;66.10;;;;;;5029744;28;20095;-50
2022/11/11 00:55:28;;;;;;;4.22;1.60;;;11.00;66.30;;;;;;5025733;28;20055;-50
2022/11/11 00:58:15;;;;;;;3.75;1.52;;;10.90;66.70;;;;;;5031973;28;20060;-50
2022/11/11 01:01:04;;;;;;;2.83;1.23;;;10.90;67.20;;;;;;5050181;28;20052;-49
2022/11/11 01:03:49;;;;;;;2.35;1.40;;;10.90;67.30;;;;;;5038003;28;20191;-50
2022/11/11 01:06:46;;;;;;;1.90;1.15;;;10.90;67.30;;;;;;5031240;28;20065;-51
2022/11/11 01:09:33;;;;;;;2.70;1.52;;;10.80;67.20;;;;;;5010320;28;20707;-50
2022/11/11 01:12:19;;;;;;;4.32;1.15;;;10.80;67.20;;;;;;5013593;28;20057;-48
2022/11/11 01:15:07;;;;;;;2.45;1.48;;;10.80;67.20;;;;;;5037895;28;20064;-51
2022/11/11 01:17:52;;;;;;;2.28;1.10;;;10.80;67.10;;;;;;5040945;28;20555;-50
2022/11/11 01:20:38;;;;;;;2.15;1.33;;;10.80;67.00;;;;;;5041128;28;20067;-48
2022/11/11 01:23:27;;;;;;;2.53;1.35;;;10.80;67.00;;;;;;5034371;28;20040;-50
2022/11/11 01:26:27;;;;;;;3.53;1.38;;;10.70;66.90;;;;;;5041413;28;20599;-48
2022/11/11 01:29:18;;;;;;;3.13;1.30;;;10.70;67.60;;;;;;5041724;28;20248;-45
2022/11/11 01:32:05;;;;;;;3.08;1.67;;;10.70;67.70;;;;;;5033944;28;20410;-49
2022/11/11 01:34:50;;;;;;;2.30;1.75;;;10.70;68.30;;;;;;5044412;28;20694;-47
2022/11/11 01:37:36;;;;;;;2.88;1.45;;;10.70;68.70;;;;;;5012574;28;20103;-47
2022/11/11 01:40:21;;;;;;;3.33;1.60;;;10.80;69.10;;;;;;5036131;28;20052;-49
2022/11/11 01:43:12;;;;;;;2.67;1.70;;;10.80;69.30;;;;;;5043244;28;20056;-47
2022/11/11 01:46:02;;;;;;;2.75;1.67;;;10.90;69.50;;;;;;5052484;28;20188;-46
2022/11/11 01:52:18;;;;;;;3.58;1.55;;;11.00;70.30;;;;;;5039566;28;20187;-48
2022/11/11 01:55:19;;;;;;;2.97;1.67;;;11.00;70.30;;;;;;5038754;28;20057;-47
2022/11/11 01:58:14;;;;;;;4.55;1.52;;;11.10;69.80;;;;;;5032000;28;20060;-45
2022/11/11 02:01:03;;;;;;;3.85;1.73;;;11.20;69.90;;;;;;5042389;28;20066;-48
2022/11/11 02:07:05;;;;;;;2.30;1.70;;;11.20;69.40;;;;;;5040538;28;20056;-48
2022/11/11 02:09:55;;;;;;;3.10;1.38;;;11.30;69.00;;;;;;5026598;28;20143;-50
2022/11/11 02:15:52;;;;;;;1.75;1.23;;;11.30;68.30;;;;;;5012620;28;20060;-47
2022/11/11 02:18:41;;;;;;;2.28;1.40;;;11.30;68.00;;;;;;5021057;28;20056;-48
2022/11/11 02:21:44;;;;;;;2.72;1.30;;;11.20;67.80;;;;;;5035825;28;20103;-47
2022/11/11 02:24:32;;;;;;;4.47;1.63;;;11.20;67.80;;;;;;5033102;28;20052;-48
2022/11/11 02:27:18;;;;;;;2.70;1.58;;;11.20;67.90;;;;;;5027372;28;20048;-48
2022/11/11 02:30:14;;;;;;;3.63;1.70;;;11.20;68.10;;;;;;5035307;28;20127;-50
2022/11/11 02:32:59;;;;;;;5.43;1.73;;;11.10;68.30;;;;;;5036893;28;20139;-49
2022/11/11 02:35:56;;;;;;;1.90;1.60;;;11.10;68.30;;;;;;5041434;28;20512;-50
2022/11/11 02:38:45;;;;;;;1.67;1.38;;;11.00;68.30;;;;;;5042053;28;20056;-46
2022/11/11 02:44:36;;;;;;;2.58;1.40;;;11.00;67.90;;;;;;5040707;28;20130;-46
2022/11/11 02:47:22;;;;;;;2.67;1.50;;;11.10;67.70;;;;;;5027276;28;20051;-49
2022/11/11 02:50:11;;;;;;;2.30;1.63;;;10.90;67.50;;;;;;5043926;28;20467;-48
2022/11/11 02:52:56;;;;;;;3.95;1.60;;;10.80;67.30;;;;;;5030871;28;20131;-49
2022/11/11 02:55:44;;;;;;;2.00;1.38;;;10.90;67.20;;;;;;5032503;28;20071;-50
2022/11/11 02:58:31;;;;;;;2.42;1.42;;;10.80;67.10;;;;;;5036361;28;20199;-47
2022/11/11 03:01:22;;;;;;;1.55;1.45;;;10.70;67.10;;;;;;5033677;28;20524;-48
2022/11/11 03:04:07;;;;;;;2.75;1.67;;;10.70;67.00;;;;;;5039865;28;20047;-46
2022/11/11 03:06:53;;;;;;;1.88;1.55;;;10.60;66.90;;;;;;5037658;28;20052;-49
2022/11/11 03:09:43;;;;;;;2.78;1.42;;;10.50;66.80;;;;;;5034289;28;20051;-49
2022/11/11 03:12:31;;;;;;;2.85;1.50;;;10.50;66.80;;;;;;5029395;28;20048;-49
2022/11/11 03:15:16;;;;;;;3.28;1.35;;;10.40;66.70;;;;;;5041581;28;20056;-46
2022/11/11 03:18:01;;;;;;;1.25;1.10;;;10.40;66.70;;;;;;5043234;28;20055;-49
2022/11/11 03:21:04;;;;;;;3.38;1.60;;;10.30;66.60;;;;;;5051820;28;20087;-45
2022/11/11 03:24:10;;;;;;;1.60;1.40;;;10.30;66.60;;;;;;5025846;28;20053;-46
2022/11/11 03:27:00;;;;;;;1.40;1.10;;;10.20;66.50;;;;;;5041232;28;20579;-50
2022/11/11 03:29:45;;;;;;;2.90;1.33;;;10.10;66.50;;;;;;5042698;28;20056;-47
2022/11/11 03:32:38;;;;;;;3.08;1.58;;;10.10;66.50;;;;;;5042454;28;20048;-45
2022/11/11 03:35:23;;;;;;;2.55;1.45;;;10.00;66.50;;;;;;5032174;28;20080;-45
2022/11/11 03:38:17;;;;;;;1.92;1.65;;;10.00;66.70;;;;;;5049979;28;20052;-48
2022/11/11 03:41:03;;;;;;;4.22;1.48;;;9.90;66.90;;;;;;5040229;28;20545;-48
2022/11/11 03:43:48;;;;;;;2.55;1.83;;;9.90;67.20;;;;;;5034117;28;20106;-45
2022/11/11 03:46:34;;;;;;;4.05;2.10;;;9.90;67.70;;;;;;5032908;28;20100;-45
2022/11/11 03:49:23;;;;;;;2.33;1.60;;;9.90;68.20;;;;;;5031971;28;20076;-46
2022/11/11 03:52:08;;;;;;;4.68;2.58;;;9.90;68.60;;;;;;5029131;28;20126;-48
2022/11/11 03:54:54;;;;;;;3.97;2.03;;;9.90;68.90;;;;;;5029988;28;20138;-47
2022/11/11 03:57:44;;;;;;;1.98;1.75;;;9.90;68.90;;;;;;5010956;28;20061;-48
2022/11/11 04:00:36;;;;;;;3.63;1.67;;;9.90;68.90;;;;;;5022636;28;20048;-46
2022/11/11 04:22:02;;;;;;;2.05;1.40;;;10.00;68.30;;;;;;5035923;28;20061;-46
2022/11/11 04:31:04;;;;;;;4.30;1.67;;;9.90;67.80;;;;;;5045279;28;20421;-49
2022/11/11 04:33:49;;;;;;;6.03;1.60;;;9.90;67.70;;;;;;5045721;28;20586;-49
2022/11/11 04:36:40;;;;;;;1.48;1.38;;;9.90;67.70;;;;;;5040087;28;20401;-45
2022/11/11 04:42:32;;;;;;;1.45;1.27;;;9.80;67.30;;;;;;5037769;28;20179;-47
2022/11/11 04:45:27;;;;;;;2.80;1.83;;;9.80;67.20;;;;;;5050262;28;20233;-47
2022/11/11 04:48:12;;;;;;;2.83;1.17;;;9.70;67.10;;;;;;5035434;28;20430;-45
2022/11/11 04:50:58;;;;;;;3.67;1.90;;;9.70;67.10;;;;;;5039210;28;20056;-47
2022/11/11 04:53:44;;;;;;;3.05;1.40;;;9.70;67.10;;;;;;5034972;28;20192;-49
2022/11/11 04:56:46;;;;;;;2.45;1.15;;;9.60;67.00;;;;;;5028829;28;20057;-49
2022/11/11 04:59:31;;;;;;;2.28;1.08;;;9.60;67.00;;;;;;5041583;28;20728;-45
2022/11/11 05:05:23;;;;;;;2.15;1.17;;;9.50;66.90;;;;;;5041818;28;20047;-46
2022/11/11 05:11:15;;;;;;;1.65;1.10;;;9.40;66.90;;;;;;5048132;28;20575;-45
2022/11/11 05:25:24;;;;;;;2.75;1.85;;;9.30;67.30;;;;;;5028756;28;20057;-45
2022/11/11 05:26:28;;;;;;;2.80;1.48;;;9.30;67.30;;;;;;5028410;28;20052;-49
2022/11/11 05:29:16;;;;;;;3.42;1.83;;;9.30;67.50;;;;;;5041749;28;20059;-49
2022/11/11 05:32:02;;;;;;;3.40;1.90;;;9.20;67.70;;;;;;5046687;28;20044;-45
2022/11/11 05:34:53;;;;;;;2.50;1.40;;;9.20;67.80;;;;;;5043321;28;20169;-47
2022/11/11 05:37:40;;;;;;;2.53;1.92;;;9.20;67.90;;;;;;5033022;28;20068;-47
2022/11/11 05:40:25;;;;;;;2.92;1.92;;;9.20;67.90;;;;;;5049552;28;20151;-45
2022/11/11 05:43:10;;;;;;;2.22;1.80;;;9.30;68.00;;;;;;5034977;28;20123;-45
2022/11/11 05:45:56;;;;;;;1.77;1.63;;;9.20;67.90;;;;;;5040493;28;20064;-46
2022/11/11 05:51:52;;;;;;;3.03;2.15;;;9.20;67.70;;;;;;5034502;28;20532;-47
2022/11/11 05:54:39;;;;;;;2.13;1.92;;;9.20;67.60;;;;;;5021685;28;20143;-46
2022/11/11 05:57:27;;;;;;;3.35;2.22;;;9.20;67.50;;;;;;5035629;28;20130;-49
2022/11/11 06:00:16;;;;;;;3.05;1.92;;;9.20;67.40;;;;;;5049276;28;20064;-48
2022/11/11 06:03:04;;;;;;;2.15;1.80;;;9.20;67.30;;;;;;5031644;28;20510;-49
2022/11/11 06:05:52;;;;;;;2.03;1.90;;;9.20;67.30;;;;;;5041386;28;20053;-50
2022/11/11 06:08:37;;;;;;;2.92;2.15;;;9.10;67.30;;;;;;5019851;28;20054;-49
2022/11/11 06:11:26;;;;;;;2.22;1.98;;;9.10;67.30;;;;;;5022416;28;20468;-49
2022/11/11 06:14:17;;;;;;;4.22;3.17;;;9.10;67.50;;;;;;5027272;28;20056;-49
2022/11/11 06:17:03;;;;;;;3.85;3.40;;;9.10;67.80;;;;;;5033606;28;20056;-49
2022/11/11 06:19:48;;;;;;;6.35;3.92;;;9.00;68.10;;;;;;5032392;28;20139;-50
2022/11/11 06:22:55;;;;;;;5.43;3.92;;;9.00;68.50;;;;;;5031083;28;20513;-46
2022/11/11 06:28:49;;;;;;;4.68;4.00;;;9.00;68.80;;;;;;5026701;28;20071;-49
2022/11/11 06:31:34;;;;;;;5.28;3.38;;;9.10;69.10;;;;;;5026920;28;20171;-48
2022/11/11 06:34:20;;;;;;;4.10;2.83;;;9.10;69.00;;;;;;5048416;28;20044;-49
2022/11/11 06:37:05;;;;;;;3.80;3.00;;;9.10;69.10;;;;;;5038354;28;20063;-48
2022/11/11 06:39:50;;;;;;;4.22;3.08;;;9.10;69.00;;;;;;5037401;28;20207;-50
2022/11/11 06:42:37;;;;;;;6.15;3.38;;;9.10;68.90;;;;;;5037775;28;20044;-46
2022/11/11 06:45:27;;;;;;;3.53;3.08;;;9.20;68.90;;;;;;5031053;28;20048;-48
2022/11/11 06:48:12;;;;;;;5.07;3.47;;;9.20;68.80;;;;;;5027461;28;20175;-50
2022/11/11 06:51:04;;;;;;;3.83;2.88;;;9.20;68.60;;;;;;5033269;28;20060;-48
2022/11/11 06:53:49;;;;;;;3.45;2.75;;;9.20;68.60;;;;;;5035581;28;20051;-48
2022/11/11 06:56:36;;;;;;;5.05;3.30;;;9.20;68.40;;;;;;5026824;28;20060;-49
2022/11/11 06:59:22;;;;;;;3.00;2.63;;;9.10;68.10;;;;;;5030664;28;20092;-50
2022/11/11 07:02:14;;;;;;;3.03;2.70;;;9.10;68.00;;;;;;5029320;28;20065;-50
2022/11/11 07:04:59;;;;;;;2.60;2.30;;;9.10;68.10;;;;;;5044995;28;20115;-49
2022/11/11 07:07:45;;;;;;;2.90;2.60;;;9.10;68.10;;;;;;5031703;28;20048;-46
2022/11/11 07:10:32;;;;;;;3.63;2.65;;;9.10;68.10;;;;;;5031095;28;20052;-49
2022/11/11 07:13:18;;;;;;;6.97;3.10;;;9.10;68.20;;;;;;5042952;28;20535;-50
2022/11/11 07:16:03;;;;;;;5.57;3.30;;;9.10;68.50;;;;;;5048101;28;20064;-47
2022/11/11 07:18:48;;;;;;;4.85;3.45;;;9.10;68.50;;;;;;5025738;28;20056;-46
2022/11/11 07:21:34;;;;;;;6.60;3.92;;;9.20;68.80;;;;;;5038962;28;20126;-48
2022/11/11 07:24:21;;;;;;;5.07;4.40;;;9.10;68.90;;;;;;5033701;28;20124;-50
2022/11/11 07:27:06;;;;;;;10.40;5.03;;;9.20;69.10;;;;;;5031247;28;20195;-49
2022/11/11 07:29:52;;;;;;;5.32;4.20;;;9.20;69.10;;;;;;5036466;28;20045;-50
2022/11/11 07:32:45;;;;;;;6.55;4.75;;;9.30;69.20;;;;;;5038138;28;20433;-49
2022/11/11 07:35:30;;;;;;;;;;;9.30;69.40;;;;;;5029203;28;20527;-48
2022/11/11 07:38:15;;;;;;;8.77;4.80;;;9.40;69.60;;;;;;5037109;28;19936;-48
2022/11/11 07:41:00;;;;;;;8.73;5.40;;;9.40;69.00;;;;;;5043792;28;20106;-50
2022/11/11 07:43:46;;;;;;;9.15;5.70;;;9.40;69.20;;;;;;5051949;28;20067;-48
2022/11/11 07:46:31;;;;;;;8.65;5.85;;;9.50;69.40;;;;;;5030113;28;20095;-50
2022/11/11 07:49:17;;;;;;;7.15;5.13;;;9.50;69.60;;;;;;5045425;28;20056;-50
2022/11/11 07:52:02;;;;;;;8.90;5.70;;;9.60;69.70;;;;;;5035530;28;20056;-50
2022/11/11 07:54:48;;;;;;;6.85;5.65;;;9.60;69.80;;;;;;5028668;28;20057;-50
2022/11/11 07:57:33;;;;;;;10.40;5.97;;;9.60;69.80;;;;;;5029212;28;20056;-50
2022/11/11 08:00:19;;;;;;;11.43;6.68;;;9.70;69.90;;;;;;5043440;28;20059;-48
2022/11/11 08:03:06;;;;;;;11.30;6.35;;;9.80;70.00;;;;;;5050730;28;20067;-50
2022/11/11 08:05:55;;;;;;;8.40;6.03;;;9.80;70.00;;;;;;5038766;28;20096;-49
2022/11/11 08:08:40;;;;;;;11.13;6.80;;;9.90;70.10;;;;;;5031580;28;20060;-49
2022/11/11 08:14:30;;;;;;;8.93;4.80;;;10.00;70.10;;;;;;5029597;28;20056;-49
2022/11/11 08:17:15;;;;;;;6.38;4.43;;;10.10;70.20;;;;;;5037075;28;20053;-47
2022/11/11 08:20:00;;;;;;;5.85;3.72;;;10.20;70.20;;;;;;5043314;28;20071;-50
2022/11/11 08:22:46;;;;;;;6.63;4.47;;;10.30;70.30;;;;;;5038796;28;20132;-50
2022/11/11 08:25:51;;;;;;;9.15;4.93;;;10.30;70.30;;;;;;5027632;28;20265;-50
2022/11/11 08:28:36;;;;;;;5.07;3.38;;;10.40;70.30;;;;;;5045269;28;20172;-50
2022/11/11 08:31:21;;;;;;;6.63;4.07;;;10.50;70.40;;;;;;5030981;28;20171;-50
2022/11/11 08:34:07;;;;;;;4.70;3.70;;;10.60;70.40;;;;;;5030854;28;20128;-49
2022/11/11 08:36:52;;;;;;;7.53;3.92;;;10.60;70.40;;;;;;5035302;28;20052;-49
2022/11/11 08:39:37;;;;;;;4.07;3.30;;;10.70;70.40;;;;;;5011693;28;20146;-50
2022/11/11 08:42:23;;;;;;;6.15;2.95;;;10.80;70.30;;;;;;5016986;28;20531;-47
2022/11/11 08:45:08;;;;;;;4.30;2.90;;;10.80;70.30;;;;;;5047434;28;20417;-51
2022/11/11 08:47:54;;;;;;;5.82;3.50;;;10.90;70.40;;;;;;5034034;28;20064;-45
2022/11/11 08:50:40;;;;;;;13.48;5.65;;;11.00;70.30;;;;;;5033124;28;20156;-49
2022/11/11 08:53:26;;;;;;;5.85;3.00;;;11.10;70.30;;;;;;5031221;28;20094;-50
2022/11/11 08:56:12;;;;;;;3.42;2.25;;;11.20;70.90;;;;;;5038672;28;20051;-50
2022/11/11 08:58:57;;;;;;;4.15;2.65;;;11.20;70.30;;;;;;5036402;28;20102;-50
2022/11/11 09:01:45;;;;;;;3.35;2.40;;;11.30;70.30;;;;;;5027751;28;20052;-49
2022/11/11 09:04:30;;;;;;;2.65;1.85;;;11.40;70.20;;;;;;5029923;28;20048;-50
2022/11/11 09:07:29;;;;;;;3.70;1.90;;;11.50;70.00;;;;;;5029534;28;20056;-48
2022/11/11 09:10:15;;;;;;;3.47;1.83;;;11.60;70.00;;;;;;5025294;28;20095;-49
2022/11/11 09:13:01;;;;;;;3.97;2.13;;;11.70;69.80;;;;;;5030477;28;20179;-50
2022/11/11 09:15:46;;;;;;;4.90;2.13;;;11.80;69.90;;;;;;5029495;28;20527;-50
2022/11/11 09:18:32;;;;;;;3.65;1.88;;;11.90;69.80;;;;;;5030253;28;20143;-50
2022/11/11 09:21:17;;;;;;;2.88;1.90;;;11.90;69.50;;;;;;5029984;28;20163;-50
2022/11/11 09:24:03;;;;;;;2.33;1.73;;;12.00;69.50;;;;;;5029089;28;20183;-49
2022/11/11 09:26:49;;;;;;;2.63;2.40;;;12.10;69.20;;;;;;5031974;28;20176;-50
2022/11/11 09:29:34;;;;;;;4.60;2.25;;;12.20;69.20;;;;;;5025221;28;20052;-49
2022/11/11 09:32:20;;;;;;;2.35;2.13;;;12.30;69.20;;;;;;5031561;28;20108;-50
2022/11/11 09:35:05;;;;;;;4.88;2.10;;;12.40;69.10;;;;;;5030026;28;20413;-50
2022/11/11 09:37:59;;;;;;;1.83;1.70;;;12.50;69.00;;;;;;5031946;28;20052;-49
2022/11/11 09:40:48;;;;;;;2.65;1.60;;;12.60;69.10;;;;;;5031497;28;20123;-46
2022/11/11 09:43:56;;;;;;;2.72;1.70;;;12.60;68.80;;;;;;5033949;28;20048;-50
2022/11/11 09:47:00;;;;;;;2.67;1.70;;;12.80;68.70;;;;;;5025239;28;20184;-50
2022/11/11 09:49:57;;;;;;;2.75;1.63;;;12.80;68.00;;;;;;5024049;28;20524;-50
2022/11/11 09:53:16;;;;;;;2.45;1.50;;;12.90;68.10;;;;;;5028780;28;20060;-49
2022/11/11 09:56:12;;;;;;;1.60;1.48;;;13.00;67.60;;;;;;5028129;28;20149;-49
2022/11/11 09:59:17;;;;;;;1.65;1.10;;;13.20;67.00;;;;;;5039768;28;20059;-49
2022/11/11 10:02:09;;;;;;;1.60;0.73;;;13.30;67.10;;;;;;5039517;28;20088;-47
2022/11/11 10:05:14;;;;;;;1.30;1.13;;;13.40;66.90;;;;;;5036082;28;20049;-50
2022/11/11 10:08:22;;;;;;;1.10;1.00;;;13.50;65.70;;;;;;5032476;28;20053;-46
2022/11/11 10:11:22;;;;;;;2.20;0.75;;;13.60;65.80;;;;;;5045153;28;20421;-47
2022/11/11 10:14:08;;;;;;;2.53;0.75;;;13.70;65.40;;;;;;5049880;28;20112;-47
2022/11/11 10:17:12;;;;;;;0.88;0.65;;;13.80;65.20;;;;;;5032542;28;20600;-45
2022/11/11 10:20:19;;;;;;;2.25;0.77;;;14.00;64.10;;;;;;5033502;28;20131;-46
2022/11/11 10:23:12;;;;;;;1.15;0.93;;;14.10;64.40;;;;;;5024156;28;20100;-46
2022/11/11 10:26:04;;;;;;;3.88;1.10;;;14.20;63.90;;;;;;5020684;28;20109;-46
2022/11/11 10:28:52;;;;;;;6.07;1.50;;;14.30;64.00;;;;;;5039352;28;20048;-46
2022/11/11 10:31:39;;;;;;;1.70;1.00;;;14.40;63.50;;;;;;5027392;28;20051;-49
2022/11/11 10:34:31;;;;;;;2.05;1.08;;;14.50;63.30;;;;;;5028264;28;20160;-48
2022/11/11 10:37:27;;;;;;;1.88;1.10;;;14.60;63.30;;;;;;5033626;28;20053;-47
2022/11/11 10:40:15;;;;;;;2.88;1.00;;;14.70;62.70;;;;;;5033269;28;20159;-48
2022/11/11 10:43:00;;;;;;;3.88;1.25;;;14.80;62.80;;;;;;5033018;28;20090;-49
2022/11/11 10:46:05;;;;;;;2.83;1.77;;;14.90;62.90;;;;;;5031815;28;20056;-47
2022/11/11 10:49:06;;;;;;;1.13;0.98;;;15.00;62.30;;;;;;5032561;28;20068;-46
2022/11/11 10:52:09;;;;;;;1.20;0.85;;;15.10;62.40;;;;;;5029979;28;20417;-50
2022/11/11 10:54:58;;;;;;;;;;;15.20;61.70;;;;;;5031429;28;20107;-46
2022/11/11 10:57:49;;;;;;;1.52;1.27;;;15.30;62.80;;;;;;5021356;28;20625;-46
2022/11/11 11:00:36;;;;;;;1.80;1.00;;;15.40;62.00;;;;;;5029571;28;20055;-46
2022/11/11 11:03:39;;;;;;;0.95;0.80;;;15.40;61.90;;;;;;5022045;28;20155;-47
2022/11/11 11:06:29;;;;;;;3.13;1.00;;;15.50;61.10;;;;;;5019926;28;20521;-50
2022/11/11 11:09:59;;;;;;;0.85;0.70;;;15.60;61.20;;;;;;5019813;28;20525;-46
2022/11/11 11:13:08;;;;;;;1.38;0.65;;;15.70;60.30;;;;;;5009139;28;20131;-46
2022/11/11 11:15:57;;;;;;;0.82;0.63;;;15.80;59.90;;;;;;5033456;28;20061;-50
2022/11/11 11:18:43;;;;;;;1.85;0.40;;;15.90;60.30;;;;;;5032039;28;20056;-46
2022/11/11 11:22:04;;;;;;;3.65;0.98;;;15.90;60.00;;;;;;5024648;28;20118;-48
2022/11/11 11:24:50;;;;;;;1.27;0.63;;;16.00;58.50;;;;;;5023551;28;20188;-46
2022/11/11 11:27:35;;;;;;;0.70;0.30;;;16.10;59.30;;;;;;5036191;28;20061;-50
2022/11/11 11:30:24;;;;;;;3.95;0.68;;;16.10;59.10;;;;;;5036292;28;20063;-52
2022/11/11 11:33:09;;;;;;;1.08;0.55;;;16.30;58.70;;;;;;5030010;28;20434;-50
2022/11/11 11:35:54;;;;;;;0.63;0.47;;;16.30;58.90;;;;;;5043740;28;20098;-54
2022/11/11 11:38:42;;;;;;;2.95;0.82;;;16.40;58.80;;;;;;5023836;28;20111;-52
2022/11/11 11:41:41;;;;;;;1.30;0.73;;;16.40;58.20;;;;;;5038862;28;20172;-53
2022/11/11 11:44:30;;;;;;;1.58;0.85;;;16.50;57.70;;;;;;5043489;28;20044;-54
2022/11/11 11:47:33;;;;;;;0.40;0.30;;;16.60;58.30;;;;;;5036644;28;20103;-50
2022/11/11 11:50:50;;;;;;;0.60;0.40;;;16.60;57.00;;;;;;5038734;28;20517;-52
2022/11/11 11:53:39;;;;;;;0.65;0.43;;;16.70;56.60;;;;;;5031387;28;20409;-53
2022/11/11 11:56:38;;;;;;;0.52;0.40;;;16.80;57.10;;;;;;5037420;28;20579;-53
2022/11/11 11:59:42;;;;;;;3.65;0.70;;;16.80;56.30;;;;;;5031683;28;20052;-51
2022/11/11 12:03:11;;;;;;;0.93;0.60;;;16.80;56.00;;;;;;5031329;28;20048;-50
2022/11/11 12:06:02;;;;;;;1.05;0.60;;;16.80;55.60;;;;;;5029218;28;20048;-51
2022/11/11 12:09:05;;;;;;;1.63;0.80;;;16.90;57.10;;;;;;5025069;28;20068;-51
2022/11/11 12:12:14;;;;;;;1.95;0.50;;;16.90;56.20;;;;;;5035439;28;20051;-53
2022/11/11 12:15:29;;;;;;;2.05;0.73;;;16.90;55.60;;;;;;5052089;28;20441;-51
2022/11/11 12:18:34;;;;;;;1.17;0.55;;;17.00;55.50;;;;;;5039932;28;20057;-53
2022/11/11 12:21:27;;;;;;;0.73;0.63;;;17.00;55.40;;;;;;5039868;28;20048;-51
2022/11/11 12:24:38;;;;;;;2.00;0.70;;;17.00;56.50;;;;;;5011553;28;20049;-49
2022/11/11 12:27:30;;;;;;;2.17;0.98;;;17.10;55.50;;;;;;5023610;28;20079;-52
2022/11/11 12:30:17;;;;;;;2.97;0.82;;;17.10;56.20;;;;;;5048151;28;20107;-53
2022/11/11 12:33:18;;;;;;;0.57;0.43;;;17.20;56.20;;;;;;5033107;28;20128;-53
2022/11/11 12:36:10;;;;;;;1.30;0.65;;;17.20;55.50;;;;;;5030972;28;20107;-52
2022/11/11 12:39:24;;;;;;;1.30;0.40;;;17.30;55.50;;;;;;5030010;28;20068;-52
2022/11/11 12:42:51;;;;;;;1.00;0.85;;;17.30;55.70;;;;;;5025824;28;20064;-52
2022/11/11 12:45:45;;;;;;;0.85;0.45;;;17.40;55.90;;;;;;5033475;28;20040;-49
2022/11/11 12:48:38;;;;;;;0.57;0.47;;;17.40;55.20;;;;;;5034544;28;20118;-51
2022/11/11 12:51:39;;;;;;;3.45;0.70;;;17.40;55.10;;;;;;5033327;28;20453;-49
2022/11/11 12:54:27;;;;;;;0.90;0.60;;;17.50;55.10;;;;;;5026765;28;20099;-52
2022/11/11 12:57:48;;;;;;;2.58;0.55;;;17.50;55.40;;;;;;5037296;28;20064;-53
2022/11/11 13:00:39;;;;;;;0.98;0.60;;;17.60;54.60;;;;;;5030210;28;20063;-53
2022/11/11 13:03:24;;;;;;;1.95;0.50;;;17.60;55.30;;;;;;5028647;28;20052;-51
2022/11/11 13:06:37;;;;;;;1.65;0.52;;;17.60;55.40;;;;;;5030395;28;20119;-50
2022/11/11 13:09:51;;;;;;;1.23;1.13;;;17.70;55.10;;;;;;5034555;28;20512;-49
2022/11/11 13:12:52;;;;;;;1.38;1.02;;;17.80;55.20;;;;;;5029031;28;20055;-53
2022/11/11 13:15:37;;;;;;;0.40;0.40;;;17.80;55.00;;;;;;5036409;28;20533;-51
2022/11/11 13:18:39;;;;;;;1.42;0.50;;;17.90;55.20;;;;;;5041407;28;20075;-49
2022/11/11 13:21:56;;;;;;;1.90;0.70;;;17.90;54.40;;;;;;5043408;28;20111;-54
2022/11/11 13:24:41;;;;;;;1.05;0.60;;;18.00;54.70;;;;;;5022638;28;20811;-55
2022/11/11 13:27:36;;;;;;;1.13;0.63;;;18.00;55.10;;;;;;5035471;28;20052;-54
2022/11/11 13:30:30;;;;;;;2.08;0.73;;;18.00;54.50;;;;;;5048429;28;20619;-53
2022/11/11 13:33:26;;;;;;;1.13;0.52;;;18.10;54.90;;;;;;5045345;28;20052;-55
2022/11/11 13:36:16;;;;;;;0.77;0.60;;;18.10;54.30;;;;;;5024756;28;20069;-55
2022/11/11 13:39:02;;;;;;;1.27;0.85;;;18.10;55.30;;;;;;5021730;28;20134;-51
2022/11/11 13:41:52;;;;;;;2.28;0.93;;;18.10;55.00;;;;;;5021672;28;20060;-54
2022/11/11 13:44:51;;;;;;;1.48;0.77;;;18.10;55.00;;;;;;5040269;28;20059;-55
2022/11/11 13:47:39;;;;;;;1.23;1.13;;;18.20;54.60;;;;;;5034973;28;20060;-55
2022/11/11 13:50:36;;;;;;;0.85;0.60;;;18.10;54.80;;;;;;5042902;28;20060;-52
2022/11/11 13:53:31;;;;;;;1.75;0.60;;;18.10;54.60;;;;;;5027804;28;20061;-52
2022/11/11 13:56:36;;;;;;;0.90;0.73;;;18.10;54.80;;;;;;5027801;28;20072;-53
2022/11/11 13:59:33;;;;;;;1.13;0.50;;;18.10;54.20;;;;;;5025569;28;20138;-55
2022/11/11 14:02:22;;;;;;;2.58;0.73;;;18.10;54.50;;;;;;5027657;28;20128;-51
2022/11/11 14:05:13;;;;;;;1.30;1.20;;;18.10;55.10;;;;;;5036575;28;20518;-54
2022/11/11 14:07:59;;;;;;;1.48;0.47;;;18.10;55.00;;;;;;5050942;28;20052;-54
2022/11/11 14:10:51;;;;;;;3.22;1.45;;;18.00;55.10;;;;;;5041271;28;20056;-51
2022/11/11 14:13:44;;;;;;;1.05;0.95;;;18.00;55.20;;;;;;5033506;28;20052;-55
2022/11/11 14:16:36;;;;;;;1.45;0.70;;;18.00;55.20;;;;;;5026316;28;20412;-54
2022/11/11 14:19:25;;;;;;;1.75;1.02;;;18.00;55.30;;;;;;5038071;28;20071;-55
2022/11/11 14:22:30;;;;;;;2.63;1.00;;;17.90;55.70;;;;;;5036474;28;20048;-53
2022/11/11 14:25:26;;;;;;;2.40;0.90;;;17.90;55.80;;;;;;5040774;28;20091;-55
2022/11/11 14:28:33;;;;;;;1.70;1.10;;;17.80;55.90;;;;;;5036431;28;20056;-55
2022/11/11 14:31:19;;;;;;;4.45;0.98;;;17.70;56.30;;;;;;5038174;28;20563;-55
2022/11/11 14:34:22;;;;;;;2.38;0.80;;;17.70;56.80;;;;;;5045852;28;20060;-51
2022/11/11 14:37:25;;;;;;;1.58;1.27;;;17.60;57.00;;;;;;5033530;28;20076;-55
2022/11/11 14:40:22;;;;;;;2.25;1.55;;;17.60;57.50;;;;;;5027628;28;20105;-55
2022/11/11 14:43:37;;;;;;;2.22;1.33;;;17.50;57.90;;;;;;5026020;28;20052;-55
2022/11/11 14:46:22;;;;;;;1.45;1.23;;;17.40;58.00;;;;;;5043010;28;20134;-55
2022/11/11 14:49:08;;;;;;;3.50;1.70;;;17.30;58.90;;;;;;5029278;28;20411;-54
2022/11/11 14:52:01;;;;;;;2.50;1.67;;;17.20;58.30;;;;;;5031591;28;20053;-55
2022/11/11 14:55:24;;;;;;;2.63;1.35;;;17.10;58.50;;;;;;5026355;28;20438;-54
2022/11/11 14:58:17;;;;;;;4.63;1.63;;;17.00;58.60;;;;;;5017758;28;20123;-55
2022/11/11 15:01:18;;;;;;;4.13;1.60;;;16.90;58.80;;;;;;5030974;28;20052;-54
2022/11/11 15:04:05;;;;;;;4.88;2.17;;;16.80;59.00;;;;;;5035324;28;20040;-54
2022/11/11 15:07:00;;;;;;;2.72;1.80;;;16.70;59.20;;;;;;5042576;28;20595;-52
2022/11/11 15:10:18;;;;;;;3.60;1.75;;;16.60;59.50;;;;;;5037854;28;20107;-54
2022/11/11 15:13:13;;;;;;;7.70;2.67;;;16.50;59.60;;;;;;5026910;28;20052;-55
2022/11/11 15:16:35;;;;;;;4.88;2.20;;;16.40;59.60;;;;;;5028068;28;20064;-55
2022/11/11 15:19:53;;;;;;;2.78;1.73;;;16.20;59.90;;;;;;5042796;28;20179;-54
2022/11/11 15:23:05;;;;;;;2.33;1.80;;;16.10;60.00;;;;;;5018253;28;20187;-51
2022/11/11 15:26:09;;;;;;;1.75;1.38;;;15.90;60.10;;;;;;5029633;28;20624;-54
2022/11/11 15:29:00;;;;;;;2.22;1.90;;;15.80;60.40;;;;;;5033683;28;20052;-55
2022/11/11 15:32:06;;;;;;;3.60;1.65;;;15.60;60.50;;;;;;5032594;28;20052;-53
2022/11/11 15:35:21;;;;;;;2.17;1.60;;;15.40;60.70;;;;;;5026201;28;20060;-52
2022/11/11 15:38:14;;;;;;;4.03;1.75;;;15.30;60.80;;;;;;5026122;28;20106;-54
2022/11/11 15:41:00;;;;;;;2.15;1.35;;;15.10;60.90;;;;;;5035319;28;20422;-54
2022/11/11 15:43:47;;;;;;;2.45;1.40;;;15.00;61.00;;;;;;5015490;28;20716;-54
2022/11/11 15:46:37;;;;;;;3.90;2.22;;;14.80;61.20;;;;;;5032938;28;20421;-51
2022/11/11 15:49:39;;;;;;;2.55;2.13;;;14.70;61.30;;;;;;5037510;28;20056;-54
2022/11/11 15:52:34;;;;;;;14.52;3.60;;;14.60;61.20;;;;;;5029928;28;20056;-53
2022/11/11 15:55:25;;;;;;;7.95;3.65;;;14.40;61.30;;;;;;5028004;28;20052;-55
2022/11/11 15:58:16;;;;;;;7.32;3.58;;;14.30;61.50;;;;;;5040100;28;20102;-55
2022/11/11 16:01:06;;;;;;;5.68;3.42;;;14.10;62.20;;;;;;5031190;28;20127;-53
2022/11/11 16:03:52;;;;;;;3.38;2.58;;;14.00;61.70;;;;;;5032745;28;20151;-55
2022/11/11 16:06:39;;;;;;;3.65;1.77;;;13.80;61.90;;;;;;5036671;28;20052;-55
2022/11/11 16:09:28;;;;;;;3.80;2.03;;;13.70;61.90;;;;;;5050412;28;20067;-55
2022/11/11 16:12:27;;;;;;;3.45;2.05;;;13.60;62.20;;;;;;5027562;28;20052;-52
2022/11/11 16:15:38;;;;;;;5.38;1.83;;;13.50;62.30;;;;;;5033423;28;20056;-53
2022/11/11 16:18:24;;;;;;;2.53;1.80;;;13.40;62.40;;;;;;5044530;28;20432;-55
2022/11/11 16:21:19;;;;;;;2.83;1.98;;;13.30;62.30;;;;;;5033131;28;20052;-52
2022/11/11 16:24:26;;;;;;;3.97;2.38;;;13.20;62.60;;;;;;5027106;28;20124;-54
2022/11/11 16:27:25;;;;;;;3.58;2.30;;;13.00;62.40;;;;;;5035438;28;20060;-53
2022/11/11 16:30:33;;;;;;;3.88;2.60;;;13.00;62.50;;;;;;5043285;28;20134;-53